sensor_id;sensor_type;location;lat;lon;timestamp;pressure;altitude;pressure_sealevel;temperature;humidity
55070;BME280;40967;52.070;8.596;2023-01-25T00:02:18;102652.94;;;0.99;92.03
55070;BME280;40967;52.070;8.596;2023-01-25T00:04:43;102647.06;;;0.96;91.58
55070;BME280;40967;52.070;8.596;2023-01-25T00:07:08;102661.31;;;1.04;91.96
55070;BME280;40967;52.070;8.596;2023-01-25T00:09:34;102633.84;;;0.94;91.87
55070;BME280;40967;52.070;8.596;2023-01-25T00:11:59;102649.50;;;1.07;91.75
55070;BME280;40967;52.070;8.596;2023-01-25T00:14:25;102640.09;;;1.03;91.70
55070;BME280;40967;52.070;8.596;2023-01-25T00:16:50;102652.53;;;1.12;91.72
55070;BME280;40967;52.070;8.596;2023-01-25T00:19:15;102645.34;;;1.12;91.20
55070;BME280;40967;52.070;8.596;2023-01-25T00:21:41;102631.16;;;1.12;91.60
55070;BME280;40967;52.070;8.596;2023-01-25T00:24:06;102631.16;;;1.12;91.44
55070;BME280;40967;52.070;8.596;2023-01-25T00:26:33;102621.47;;;1.11;91.43
55070;BME280;40967;52.070;8.596;2023-01-25T00:28:59;102620.09;;;1.07;91.64
55070;BME280;40967;52.070;8.596;2023-01-25T00:39:15;102603.38;;;1.05;92.38
55070;BME280;40967;52.070;8.596;2023-01-25T00:41:42;102601.38;;;1.07;92.65
55070;BME280;40967;52.070;8.596;2023-01-25T00:44:07;102596.88;;;1.07;92.80
55070;BME280;40967;52.070;8.596;2023-01-25T00:46:33;102602.38;;;1.06;92.52
55070;BME280;40967;52.070;8.596;2023-01-25T00:48:58;102596.66;;;1.01;92.33
55070;BME280;40967;52.070;8.596;2023-01-25T00:51:24;102601.38;;;1.07;91.71
55070;BME280;40967;52.070;8.596;2023-01-25T00:53:49;102590.66;;;0.99;91.77
55070;BME280;40967;52.070;8.596;2023-01-25T00:56:15;102597.50;;;1.01;92.02
55070;BME280;40967;52.070;8.596;2023-01-25T00:58:41;102607.84;;;1.04;92.32
55070;BME280;40967;52.070;8.596;2023-01-25T01:01:07;102587.03;;;0.90;92.69
55070;BME280;40967;52.070;8.596;2023-01-25T01:03:32;102608.03;;;1.03;92.38
55070;BME280;40967;52.070;8.596;2023-01-25T01:06:06;102583.06;;;0.94;92.38
55070;BME280;40967;52.070;8.596;2023-01-25T01:08:32;102595.34;;;1.05;92.43
55070;BME280;40967;52.070;8.596;2023-01-25T01:11:00;102592.66;;;1.05;92.08
55070;BME280;40967;52.070;8.596;2023-01-25T01:13:26;102579.25;;;0.97;92.79
55070;BME280;40967;52.070;8.596;2023-01-25T01:15:52;102587.31;;;1.05;92.25
55070;BME280;40967;52.070;8.596;2023-01-25T01:18:17;102581.63;;;1.00;92.35
55070;BME280;40967;52.070;8.596;2023-01-25T01:20:50;102602.38;;;1.06;92.25
55070;BME280;40967;52.070;8.596;2023-01-25T01:23:16;102594.50;;;1.04;93.27
55070;BME280;40967;52.070;8.596;2023-01-25T01:25:41;102598.69;;;1.07;92.33
55070;BME280;40967;52.070;8.596;2023-01-25T01:28:07;102603.19;;;1.06;92.83
55070;BME280;40967;52.070;8.596;2023-01-25T01:30:32;102576.88;;;0.94;93.03
55070;BME280;40967;52.070;8.596;2023-01-25T01:32:58;102597.03;;;1.06;93.48
55070;BME280;40967;52.070;8.596;2023-01-25T01:35:23;102589.63;;;1.00;93.12
55070;BME280;40967;52.070;8.596;2023-01-25T01:37:48;102596.19;;;1.05;93.65
55070;BME280;40967;52.070;8.596;2023-01-25T01:40:14;102596.19;;;1.05;93.83
55070;BME280;40967;52.070;8.596;2023-01-25T01:43:00;102597.03;;;1.06;93.42
55070;BME280;40967;52.070;8.596;2023-01-25T01:45:50;102599.56;;;1.07;93.25
55070;BME280;40967;52.070;8.596;2023-01-25T01:50:56;102603.69;;;1.02;93.30
55070;BME280;40967;52.070;8.596;2023-01-25T01:53:24;102599.63;;;0.98;93.51
55070;BME280;40967;52.070;8.596;2023-01-25T01:55:56;102591.75;;;0.88;94.29
55070;BME280;40967;52.070;8.596;2023-01-25T01:58:23;102600.41;;;0.90;94.69
55070;BME280;40967;52.070;8.596;2023-01-25T02:00:48;102604.41;;;0.86;94.77
55070;BME280;40967;52.070;8.596;2023-01-25T02:03:14;102598.53;;;0.83;94.96
55070;BME280;40967;52.070;8.596;2023-01-25T02:05:59;102586.69;;;0.85;95.75
55070;BME280;40967;52.070;8.596;2023-01-25T02:08:27;102589.19;;;0.87;95.08
55070;BME280;40967;52.070;8.596;2023-01-25T02:10:54;102597.22;;;0.87;95.63
55070;BME280;40967;52.070;8.596;2023-01-25T02:13:20;102595.22;;;0.89;95.77
55070;BME280;40967;52.070;8.596;2023-01-25T02:15:48;102592.56;;;0.89;95.85
55070;BME280;40967;52.070;8.596;2023-01-25T02:18:15;102586.06;;;0.91;95.90
55070;BME280;40967;52.070;8.596;2023-01-25T02:20:43;102568.81;;;0.86;96.07
55070;BME280;40967;52.070;8.596;2023-01-25T02:25:43;102549.91;;;0.79;96.01
55070;BME280;40967;52.070;8.596;2023-01-25T02:30:53;102575.06;;;0.94;95.91
55070;BME280;40967;52.070;8.596;2023-01-25T02:33:18;102567.88;;;0.95;96.11
55070;BME280;40967;52.070;8.596;2023-01-25T02:35:54;102572.53;;;0.93;95.96
55070;BME280;40967;52.070;8.596;2023-01-25T02:38:21;102571.16;;;0.89;95.95
55070;BME280;40967;52.070;8.596;2023-01-25T02:40:57;102579.19;;;0.89;96.77
55070;BME280;40967;52.070;8.596;2023-01-25T02:43:28;102573.84;;;0.89;96.55
55070;BME280;40967;52.070;8.596;2023-01-25T02:49:04;102564.69;;;0.91;96.96
55070;BME280;40967;52.070;8.596;2023-01-25T02:51:34;102558.19;;;0.94;97.30
55070;BME280;40967;52.070;8.596;2023-01-25T02:54:01;102554.38;;;0.96;96.79
55070;BME280;40967;52.070;8.596;2023-01-25T02:56:26;102544.44;;;0.89;96.32
55070;BME280;40967;52.070;8.596;2023-01-25T02:58:52;102534.41;;;0.83;96.23
55070;BME280;40967;52.070;8.596;2023-01-25T03:01:18;102548.34;;;0.94;96.92
55070;BME280;40967;52.070;8.596;2023-01-25T03:03:43;102536.16;;;0.92;96.37
55070;BME280;40967;52.070;8.596;2023-01-25T03:06:09;102544.69;;;0.95;96.08
55070;BME280;40967;52.070;8.596;2023-01-25T03:08:35;102549.03;;;0.96;96.71
55070;BME280;40967;52.070;8.596;2023-01-25T03:11:02;102535.97;;;0.93;96.44
55070;BME280;40967;52.070;8.596;2023-01-25T03:13:28;102510.94;;;0.69;96.94
55070;BME280;40967;52.070;8.596;2023-01-25T03:16:08;102528.75;;;0.86;97.15
55070;BME280;40967;52.070;8.596;2023-01-25T03:18:35;102523.00;;;0.73;97.46
55070;BME280;40967;52.070;8.596;2023-01-25T03:21:06;102526.84;;;0.78;97.67
55070;BME280;40967;52.070;8.596;2023-01-25T03:23:31;102508.09;;;0.70;98.18
55070;BME280;40967;52.070;8.596;2023-01-25T03:28:35;102507.50;;;0.76;98.04
55070;BME280;40967;52.070;8.596;2023-01-25T03:31:01;102505.34;;;0.80;98.32
55070;BME280;40967;52.070;8.596;2023-01-25T03:33:27;102488.91;;;0.75;98.37
55070;BME280;40967;52.070;8.596;2023-01-25T03:35:56;102496.16;;;0.82;97.73
55070;BME280;40967;52.070;8.596;2023-01-25T03:38:22;102489.16;;;0.81;98.35
55070;BME280;40967;52.070;8.596;2023-01-25T03:40:47;102475.44;;;0.76;97.99
55070;BME280;40967;52.070;8.596;2023-01-25T03:43:14;102487.28;;;0.82;98.60
55070;BME280;40967;52.070;8.596;2023-01-25T03:45:39;102483.13;;;0.79;98.42
55070;BME280;40967;52.070;8.596;2023-01-25T03:48:05;102485.28;;;0.76;98.56
55070;BME280;40967;52.070;8.596;2023-01-25T03:50:30;102485.94;;;0.78;98.33
55070;BME280;40967;52.070;8.596;2023-01-25T03:53:03;102487.09;;;0.75;98.80
55070;BME280;40967;52.070;8.596;2023-01-25T03:55:34;102478.91;;;0.77;98.44
55070;BME280;40967;52.070;8.596;2023-01-25T03:58:00;102485.94;;;0.78;99.25
55070;BME280;40967;52.070;8.596;2023-01-25T04:00:25;102440.06;;;0.57;98.85
55070;BME280;40967;52.070;8.596;2023-01-25T04:02:51;102464.22;;;0.73;98.22
55070;BME280;40967;52.070;8.596;2023-01-25T04:05:16;102472.59;;;0.78;98.63
55070;BME280;40967;52.070;8.596;2023-01-25T04:07:42;102477.63;;;0.81;98.51
55070;BME280;40967;52.070;8.596;2023-01-25T04:10:08;102464.06;;;0.74;98.63
55070;BME280;40967;52.070;8.596;2023-01-25T04:12:33;102466.22;;;0.71;98.59
55070;BME280;40967;52.070;8.596;2023-01-25T04:14:58;102454.13;;;0.59;99.40
55070;BME280;40967;52.070;8.596;2023-01-25T04:17:24;102460.50;;;0.66;100.00
55070;BME280;40967;52.070;8.596;2023-01-25T04:19:49;102459.66;;;0.65;100.00
55070;BME280;40967;52.070;8.596;2023-01-25T04:22:15;102432.69;;;0.51;100.00
55070;BME280;40967;52.070;8.596;2023-01-25T04:24:41;102451.66;;;0.65;99.79
55070;BME280;40967;52.070;8.596;2023-01-25T04:27:06;102445.09;;;0.60;100.00
55070;BME280;40967;52.070;8.596;2023-01-25T04:29:33;102453.47;;;0.65;100.00
55070;BME280;40967;52.070;8.596;2023-01-25T04:31:58;102456.66;;;0.68;100.00
55070;BME280;40967;52.070;8.596;2023-01-25T04:34:24;102450.47;;;0.68;100.00
55070;BME280;40967;52.070;8.596;2023-01-25T04:36:49;102459.41;;;0.76;99.77
55070;BME280;40967;52.070;8.596;2023-01-25T04:39:15;102458.06;;;0.80;99.81
55070;BME280;40967;52.070;8.596;2023-01-25T04:41:40;102448.38;;;0.79;100.00
55070;BME280;40967;52.070;8.596;2023-01-25T04:44:06;102433.44;;;0.61;99.77
55070;BME280;40967;52.070;8.596;2023-01-25T04:46:31;102452.69;;;0.72;100.00
55070;BME280;40967;52.070;8.596;2023-01-25T04:48:56;102432.59;;;0.60;100.00
55070;BME280;40967;52.070;8.596;2023-01-25T04:51:22;102434.44;;;0.68;100.00
55070;BME280;40967;52.070;8.596;2023-01-25T04:53:47;102448.84;;;0.75;100.00
55070;BME280;40967;52.070;8.596;2023-01-25T04:56:13;102446.56;;;0.80;100.00
55070;BME280;40967;52.070;8.596;2023-01-25T04:58:38;102454.41;;;0.81;99.87
55070;BME280;40967;52.070;8.596;2023-01-25T05:01:03;102446.06;;;0.84;100.00
55070;BME280;40967;52.070;8.596;2023-01-25T05:03:29;102448.41;;;0.87;100.00
55070;BME280;40967;52.070;8.596;2023-01-25T05:05:54;102440.22;;;0.89;99.92
55070;BME280;40967;52.070;8.596;2023-01-25T05:08:20;102444.59;;;0.90;99.55
55070;BME280;40967;52.070;8.596;2023-01-25T05:10:45;102423.97;;;0.74;99.97
55070;BME280;40967;52.070;8.596;2023-01-25T05:13:11;102442.72;;;0.82;99.60
55070;BME280;40967;52.070;8.596;2023-01-25T05:15:36;102445.88;;;0.78;99.88
55070;BME280;40967;52.070;8.596;2023-01-25T05:18:02;102441.84;;;0.74;100.00
55070;BME280;40967;52.070;8.596;2023-01-25T05:20:28;102430.44;;;0.64;100.00
55070;BME280;40967;52.070;8.596;2023-01-25T05:22:53;102438.44;;;0.64;100.00
55070;BME280;40967;52.070;8.596;2023-01-25T05:25:19;102440.44;;;0.62;100.00
55070;BME280;40967;52.070;8.596;2023-01-25T05:28:04;102438.91;;;0.59;100.00
55070;BME280;40967;52.070;8.596;2023-01-25T05:30:30;102436.22;;;0.59;100.00
55070;BME280;40967;52.070;8.596;2023-01-25T05:32:56;102434.06;;;0.55;100.00
55070;BME280;40967;52.070;8.596;2023-01-25T05:35:21;102434.81;;;0.47;100.00
55070;BME280;40967;52.070;8.596;2023-01-25T05:37:46;102426.09;;;0.37;100.00
55070;BME280;40967;52.070;8.596;2023-01-25T05:40:12;102434.78;;;0.39;100.00
55070;BME280;40967;52.070;8.596;2023-01-25T05:42:37;102422.56;;;0.37;100.00
55070;BME280;40967;52.070;8.596;2023-01-25T05:45:03;102414.19;;;0.32;100.00
55070;BME280;40967;52.070;8.596;2023-01-25T05:47:28;102430.84;;;0.51;100.00
55070;BME280;40967;52.070;8.596;2023-01-25T05:49:54;102433.84;;;0.48;100.00
55070;BME280;40967;52.070;8.596;2023-01-25T05:52:19;102424.50;;;0.52;100.00
55070;BME280;40967;52.070;8.596;2023-01-25T05:54:44;102409.97;;;0.47;100.00
55070;BME280;40967;52.070;8.596;2023-01-25T05:57:10;102411.47;;;0.49;100.00
55070;BME280;40967;52.070;8.596;2023-01-25T05:59:37;102424.38;;;0.54;100.00
55070;BME280;40967;52.070;8.596;2023-01-25T06:02:02;102418.97;;;0.46;100.00
55070;BME280;40967;52.070;8.596;2023-01-25T06:04:28;102415.56;;;0.36;100.00
55070;BME280;40967;52.070;8.596;2023-01-25T06:06:53;102415.72;;;0.34;100.00
55070;BME280;40967;52.070;8.596;2023-01-25T06:09:19;102419.38;;;0.33;100.00
55070;BME280;40967;52.070;8.596;2023-01-25T06:11:45;102419.38;;;0.33;100.00
55070;BME280;40967;52.070;8.596;2023-01-25T06:14:11;102420.56;;;0.31;100.00
55070;BME280;40967;52.070;8.596;2023-01-25T06:16:36;102408.66;;;0.25;100.00
55070;BME280;40967;52.070;8.596;2023-01-25T06:19:04;102414.03;;;0.33;100.00
55070;BME280;40967;52.070;8.596;2023-01-25T06:21:29;102398.50;;;0.29;100.00
55070;BME280;40967;52.070;8.596;2023-01-25T06:23:54;102414.28;;;0.40;100.00
55070;BME280;40967;52.070;8.596;2023-01-25T06:26:20;102403.88;;;0.37;100.00
55070;BME280;40967;52.070;8.596;2023-01-25T06:28:45;102409.75;;;0.40;100.00
55070;BME280;40967;52.070;8.596;2023-01-25T06:31:16;102413.09;;;0.42;100.00
55070;BME280;40967;52.070;8.596;2023-01-25T06:33:42;102417.63;;;0.42;100.00
55070;BME280;40967;52.070;8.596;2023-01-25T06:36:13;102420.44;;;0.40;100.00
55070;BME280;40967;52.070;8.596;2023-01-25T06:38:39;102401.84;;;0.31;100.00
55070;BME280;40967;52.070;8.596;2023-01-25T06:41:06;102416.25;;;0.38;100.00
55070;BME280;40967;52.070;8.596;2023-01-25T06:43:33;102424.63;;;0.43;100.00
55070;BME280;40967;52.070;8.596;2023-01-25T06:46:00;102407.25;;;0.39;100.00
55070;BME280;40967;52.070;8.596;2023-01-25T06:48:26;102413.47;;;0.47;100.00
55070;BME280;40967;52.070;8.596;2023-01-25T06:50:56;102410.78;;;0.47;100.00
55070;BME280;40967;52.070;8.596;2023-01-25T06:53:26;102409.97;;;0.47;100.00
55070;BME280;40967;52.070;8.596;2023-01-25T06:56:00;102413.00;;;0.52;100.00
55070;BME280;40967;52.070;8.596;2023-01-25T06:58:27;102411.31;;;0.51;100.00
55070;BME280;40967;52.070;8.596;2023-01-25T07:00:52;102411.44;;;0.41;100.00
55070;BME280;40967;52.070;8.596;2023-01-25T07:03:18;102419.50;;;0.49;100.00
55070;BME280;40967;52.070;8.596;2023-01-25T07:05:43;102414.63;;;0.45;100.00
55070;BME280;40967;52.070;8.596;2023-01-25T07:08:09;102413.31;;;0.49;100.00
55070;BME280;40967;52.070;8.596;2023-01-25T07:10:34;102381.53;;;0.38;100.00
55070;BME280;40967;52.070;8.596;2023-01-25T07:12:59;102404.84;;;0.53;100.00
55070;BME280;40967;52.070;8.596;2023-01-25T07:15:25;102418.06;;;0.63;100.00
55070;BME280;40967;52.070;8.596;2023-01-25T07:17:51;102417.75;;;0.66;100.00
55070;BME280;40967;52.070;8.596;2023-01-25T07:20:16;102413.56;;;0.63;100.00
55070;BME280;40967;52.070;8.596;2023-01-25T07:22:41;102412.06;;;0.61;100.00
55070;BME280;40967;52.070;8.596;2023-01-25T07:25:07;102405.72;;;0.62;100.00
55070;BME280;40967;52.070;8.596;2023-01-25T07:27:33;102405.22;;;0.66;100.00
55070;BME280;40967;52.070;8.596;2023-01-25T07:29:59;102409.00;;;0.56;100.00
55070;BME280;40967;52.070;8.596;2023-01-25T07:32:25;102402.25;;;0.44;100.00
55070;BME280;40967;52.070;8.596;2023-01-25T07:34:50;102397.88;;;0.35;100.00
55070;BME280;40967;52.070;8.596;2023-01-25T07:37:15;102397.47;;;0.22;100.00
55070;BME280;40967;52.070;8.596;2023-01-25T07:39:41;102398.75;;;0.18;100.00
55070;BME280;40967;52.070;8.596;2023-01-25T07:42:12;102395.09;;;0.19;100.00
55070;BME280;40967;52.070;8.596;2023-01-25T07:44:38;102392.69;;;0.08;100.00
55070;BME280;40967;52.070;8.596;2023-01-25T07:47:03;102402.06;;;0.12;100.00
55070;BME280;40967;52.070;8.596;2023-01-25T07:49:29;102391.03;;;0.07;100.00
55070;BME280;40967;52.070;8.596;2023-01-25T07:51:54;102387.34;;;0.08;100.00
55070;BME280;40967;52.070;8.596;2023-01-25T07:54:19;102390.53;;;0.11;100.00
55070;BME280;40967;52.070;8.596;2023-01-25T07:56:45;102394.25;;;0.18;100.00
55070;BME280;40967;52.070;8.596;2023-01-25T07:59:10;102394.19;;;0.28;100.00
55070;BME280;40967;52.070;8.596;2023-01-25T08:01:37;102387.88;;;0.37;100.00
55070;BME280;40967;52.070;8.596;2023-01-25T08:04:03;102393.44;;;0.43;100.00
55070;BME280;40967;52.070;8.596;2023-01-25T08:06:35;102388.63;;;0.47;100.00
55070;BME280;40967;52.070;8.596;2023-01-25T08:09:07;102384.78;;;0.49;100.00
55070;BME280;40967;52.070;8.596;2023-01-25T08:11:32;102382.75;;;0.43;100.00
55070;BME280;40967;52.070;8.596;2023-01-25T08:13:59;102377.34;;;0.35;100.00
55070;BME280;40967;52.070;8.596;2023-01-25T08:16:27;102373.63;;;0.28;100.00
55070;BME280;40967;52.070;8.596;2023-01-25T08:18:55;102376.78;;;0.24;100.00
55070;BME280;40967;52.070;8.596;2023-01-25T08:21:22;102392.38;;;0.36;100.00
55070;BME280;40967;52.070;8.596;2023-01-25T08:23:54;102385.06;;;0.38;100.00
55070;BME280;40967;52.070;8.596;2023-01-25T08:26:20;102378.53;;;0.33;100.00
55070;BME280;40967;52.070;8.596;2023-01-25T08:28:45;102388.38;;;0.40;100.00
55070;BME280;40967;52.070;8.596;2023-01-25T08:31:14;102380.38;;;0.40;100.00
55070;BME280;40967;52.070;8.596;2023-01-25T08:33:40;102371.38;;;0.41;100.00
55070;BME280;40967;52.070;8.596;2023-01-25T08:36:07;102366.38;;;0.38;100.00
55070;BME280;40967;52.070;8.596;2023-01-25T08:38:34;102368.03;;;0.39;100.00
55070;BME280;40967;52.070;8.596;2023-01-25T08:41:11;102370.53;;;0.41;100.00
55070;BME280;40967;52.070;8.596;2023-01-25T08:43:37;102369.56;;;0.42;100.00
55070;BME280;40967;52.070;8.596;2023-01-25T08:46:03;102358.56;;;0.45;100.00
55070;BME280;40967;52.070;8.596;2023-01-25T08:48:29;102362.72;;;0.47;100.00
55070;BME280;40967;52.070;8.596;2023-01-25T08:50:54;102365.91;;;0.51;100.00
55070;BME280;40967;52.070;8.596;2023-01-25T08:53:20;102356.44;;;0.56;100.00
55070;BME280;40967;52.070;8.596;2023-01-25T08:55:45;102348.25;;;0.58;100.00
55070;BME280;40967;52.070;8.596;2023-01-25T08:58:15;102356.09;;;0.59;100.00
55070;BME280;40967;52.070;8.596;2023-01-25T09:00:44;102347.81;;;0.62;100.00
55070;BME280;40967;52.070;8.596;2023-01-25T09:03:10;102349.28;;;0.65;100.00
55070;BME280;40967;52.070;8.596;2023-01-25T09:05:37;102354.81;;;0.71;100.00
55070;BME280;40967;52.070;8.596;2023-01-25T09:08:05;102349.19;;;0.74;100.00
55070;BME280;40967;52.070;8.596;2023-01-25T09:10:31;102341.84;;;0.76;100.00
55070;BME280;40967;52.070;8.596;2023-01-25T09:12:56;102347.72;;;0.80;100.00
55070;BME280;40967;52.070;8.596;2023-01-25T09:15:22;102344.69;;;0.83;100.00
55070;BME280;40967;52.070;8.596;2023-01-25T09:17:54;102343.00;;;0.82;100.00
55070;BME280;40967;52.070;8.596;2023-01-25T09:20:21;102338.50;;;0.82;100.00
55070;BME280;40967;52.070;8.596;2023-01-25T09:22:47;102338.16;;;0.77;100.00
55070;BME280;40967;52.070;8.596;2023-01-25T09:25:12;102332.81;;;0.69;100.00
55070;BME280;40967;52.070;8.596;2023-01-25T09:27:38;102327.59;;;0.68;100.00
55070;BME280;40967;52.070;8.596;2023-01-25T09:30:05;102329.44;;;0.67;100.00
55070;BME280;40967;52.070;8.596;2023-01-25T09:32:31;102329.28;;;0.69;100.00
55070;BME280;40967;52.070;8.596;2023-01-25T09:34:57;102317.75;;;0.60;100.00
55070;BME280;40967;52.070;8.596;2023-01-25T09:37:22;102314.56;;;0.65;100.00
55070;BME280;40967;52.070;8.596;2023-01-25T09:39:48;102328.44;;;0.68;100.00
55070;BME280;40967;52.070;8.596;2023-01-25T09:49:59;102322.22;;;0.60;100.00
55070;BME280;40967;52.070;8.596;2023-01-25T09:52:50;102319.22;;;0.63;100.00
55070;BME280;40967;52.070;8.596;2023-01-25T09:55:21;102312.91;;;0.64;100.00
55070;BME280;40967;52.070;8.596;2023-01-25T09:57:48;102308.75;;;0.69;100.00
55070;BME280;40967;52.070;8.596;2023-01-25T10:00:25;102312.47;;;0.76;100.00
55070;BME280;40967;52.070;8.596;2023-01-25T10:03:09;102312.63;;;0.83;100.00
55070;BME280;40967;52.070;8.596;2023-01-25T10:05:43;102296.09;;;0.87;100.00
55070;BME280;40967;52.070;8.596;2023-01-25T10:10:58;102296.78;;;0.89;100.00
55070;BME280;40967;52.070;8.596;2023-01-25T10:13:24;102297.47;;;0.91;100.00
55070;BME280;40967;52.070;8.596;2023-01-25T10:16:03;102293.28;;;0.89;100.00
55070;BME280;40967;52.070;8.596;2023-01-25T10:21:27;102289.09;;;0.86;100.00
55070;BME280;40967;52.070;8.596;2023-01-25T10:26:34;102279.22;;;0.71;100.00
55070;BME280;40967;52.070;8.596;2023-01-25T10:29:21;102278.72;;;0.75;100.00
55070;BME280;40967;52.070;8.596;2023-01-25T10:31:51;102272.91;;;0.80;100.00
55070;BME280;40967;52.070;8.596;2023-01-25T10:34:26;102273.25;;;0.85;100.00
55070;BME280;40967;52.070;8.596;2023-01-25T10:36:55;102264.56;;;0.83;100.00
55070;BME280;40967;52.070;8.596;2023-01-25T10:39:21;102264.03;;;0.87;100.00
55070;BME280;40967;52.070;8.596;2023-01-25T10:41:58;102256.69;;;0.81;100.00
55070;BME280;40967;52.070;8.596;2023-01-25T10:44:25;102253.00;;;0.74;100.00
55070;BME280;40967;52.070;8.596;2023-01-25T10:47:15;102258.00;;;0.69;100.00
55070;BME280;40967;52.070;8.596;2023-01-25T10:49:55;102254.16;;;0.72;100.00
55070;BME280;40967;52.070;8.596;2023-01-25T10:52:31;102249.50;;;0.74;100.00
55070;BME280;40967;52.070;8.596;2023-01-25T10:55:16;102245.50;;;0.78;100.00
55070;BME280;40967;52.070;8.596;2023-01-25T10:57:50;102235.81;;;0.77;100.00
55070;BME280;40967;52.070;8.596;2023-01-25T11:00:38;102234.47;;;0.81;100.00
55070;BME280;40967;52.070;8.596;2023-01-25T11:03:04;102233.63;;;0.80;100.00
55070;BME280;40967;52.070;8.596;2023-01-25T11:08:24;102214.13;;;0.80;100.00
55070;BME280;40967;52.070;8.596;2023-01-25T11:10:52;102218.97;;;0.84;100.00
55070;BME280;40967;52.070;8.596;2023-01-25T11:13:19;102207.94;;;0.79;100.00
55070;BME280;40967;52.070;8.596;2023-01-25T11:18:27;102192.56;;;0.73;100.00
55070;BME280;40967;52.070;8.596;2023-01-25T11:21:09;102203.06;;;0.75;100.00
55070;BME280;40967;52.070;8.596;2023-01-25T11:23:36;102183.06;;;0.71;100.00
55070;BME280;40967;52.070;8.596;2023-01-25T11:26:16;102197.25;;;0.79;100.00
55070;BME280;40967;52.070;8.596;2023-01-25T11:28:44;102188.69;;;0.68;100.00
55070;BME280;40967;52.070;8.596;2023-01-25T11:31:11;102184.19;;;0.60;100.00
55070;BME280;40967;52.070;8.596;2023-01-25T11:33:38;102181.16;;;0.47;100.00
55070;BME280;40967;52.070;8.596;2023-01-25T11:36:12;102170.47;;;0.31;100.00
55070;BME280;40967;52.070;8.596;2023-01-25T11:38:52;102182.28;;;0.29;100.00
55070;BME280;40967;52.070;8.596;2023-01-25T11:47:04;102153.53;;;0.07;100.00
55070;BME280;40967;52.070;8.596;2023-01-25T11:55:24;102130.66;;;0.04;100.00
55070;BME280;40967;52.070;8.596;2023-01-25T12:06:42;102109.59;;;-0.15;100.00
55070;BME280;40967;52.070;8.596;2023-01-25T12:09:51;102105.59;;;-0.11;100.00
55070;BME280;40967;52.070;8.596;2023-01-25T12:12:30;102092.59;;;-0.14;100.00
55070;BME280;40967;52.070;8.596;2023-01-25T12:20:52;102096.06;;;-0.14;100.00
55070;BME280;40967;52.070;8.596;2023-01-25T12:29:09;102063.47;;;0.09;100.00
55070;BME280;40967;52.070;8.596;2023-01-25T12:31:44;102064.13;;;0.11;100.00
55070;BME280;40967;52.070;8.596;2023-01-25T12:34:32;102052.81;;;0.09;100.00
55070;BME280;40967;52.070;8.596;2023-01-25T12:37:07;102038.63;;;0.00;100.00
55070;BME280;40967;52.070;8.596;2023-01-25T12:39:52;102032.75;;;-0.12;100.00
55070;BME280;40967;52.070;8.596;2023-01-25T12:42:35;102041.06;;;-0.15;100.00
55070;BME280;40967;52.070;8.596;2023-01-25T12:45:09;102033.06;;;-0.15;100.00
55070;BME280;40967;52.070;8.596;2023-01-25T12:47:43;102018.41;;;-0.11;100.00
55070;BME280;40967;52.070;8.596;2023-01-25T12:50:24;102013.22;;;-0.12;100.00
55070;BME280;40967;52.070;8.596;2023-01-25T12:53:01;101993.69;;;-0.37;100.00
55070;BME280;40967;52.070;8.596;2023-01-25T12:55:29;101998.34;;;-0.39;100.00
55070;BME280;40967;52.070;8.596;2023-01-25T12:58:37;102005.69;;;-0.33;100.00
55070;BME280;40967;52.070;8.596;2023-01-25T13:01:05;101977.00;;;-0.39;100.00
55070;BME280;40967;52.070;8.596;2023-01-25T13:06:08;101975.31;;;-0.40;100.00
55070;BME280;40967;52.070;8.596;2023-01-25T13:13:36;101978.28;;;-0.59;100.00
55070;BME280;40967;52.070;8.596;2023-01-25T13:18:58;101962.78;;;-0.55;100.00
55070;BME280;40967;52.070;8.596;2023-01-25T13:32:04;101941.16;;;-0.52;100.00
55070;BME280;40967;52.070;8.596;2023-01-25T13:39:56;101941.16;;;-0.52;100.00
55070;BME280;40967;52.070;8.596;2023-01-25T13:42:24;101935.84;;;-0.52;100.00
55070;BME280;40967;52.070;8.596;2023-01-25T13:45:16;101940.81;;;-0.49;100.00
55070;BME280;40967;52.070;8.596;2023-01-25T13:47:44;101919.84;;;-0.52;100.00
55070;BME280;40967;52.070;8.596;2023-01-25T13:50:25;101918.50;;;-0.48;100.00
55070;BME280;40967;52.070;8.596;2023-01-25T13:52:56;101930.00;;;-0.40;100.00
55070;BME280;40967;52.070;8.596;2023-01-25T13:55:21;101926.34;;;-0.39;100.00
55070;BME280;40967;52.070;8.596;2023-01-25T13:57:47;101917.84;;;-0.34;100.00
55070;BME280;40967;52.070;8.596;2023-01-25T14:00:14;101908.84;;;-0.41;100.00
55070;BME280;40967;52.070;8.596;2023-01-25T14:02:42;101917.34;;;-0.38;100.00
55070;BME280;40967;52.070;8.596;2023-01-25T14:05:24;101904.53;;;-0.42;100.00
55070;BME280;40967;52.070;8.596;2023-01-25T14:07:54;101914.16;;;-0.41;100.00
55070;BME280;40967;52.070;8.596;2023-01-25T14:10:25;101889.34;;;-0.50;100.00
55070;BME280;40967;52.070;8.596;2023-01-25T14:12:53;101899.00;;;-0.49;100.00
55070;BME280;40967;52.070;8.596;2023-01-25T14:15:23;101891.66;;;-0.47;100.00
55070;BME280;40967;52.070;8.596;2023-01-25T14:18:09;101895.00;;;-0.45;100.00
55070;BME280;40967;52.070;8.596;2023-01-25T14:20:35;101892.16;;;-0.43;100.00
55070;BME280;40967;52.070;8.596;2023-01-25T14:23:00;101896.00;;;-0.46;100.00
55070;BME280;40967;52.070;8.596;2023-01-25T14:25:26;101913.66;;;-0.45;100.00
55070;BME280;40967;52.070;8.596;2023-01-25T14:27:55;101909.34;;;-0.46;100.00
55070;BME280;40967;52.070;8.596;2023-01-25T14:30:25;101914.16;;;-0.49;100.00
55070;BME280;40967;52.070;8.596;2023-01-25T14:32:57;101907.31;;;-0.52;100.00
55070;BME280;40967;52.070;8.596;2023-01-25T14:35:34;101905.00;;;-0.47;100.00
55070;BME280;40967;52.070;8.596;2023-01-25T14:38:01;101897.16;;;-0.56;100.00
55070;BME280;40967;52.070;8.596;2023-01-25T14:40:28;101901.97;;;-0.60;100.00
55070;BME280;40967;52.070;8.596;2023-01-25T14:42:54;101907.47;;;-0.53;100.00